createdAt,value
2023-05-20T00:01:20.193Z,1.70
2023-05-20T00:03:48.169Z,1.77
2023-05-20T00:06:17.499Z,2.07
2023-05-20T00:08:45.341Z,1.83
2023-05-20T00:11:12.979Z,1.97
2023-05-20T00:13:40.639Z,2.17
2023-05-20T00:16:08.466Z,1.57
2023-05-20T00:18:36.427Z,1.80
2023-05-20T00:21:04.093Z,1.60
2023-05-20T00:23:33.253Z,2.20
2023-05-20T00:26:01.068Z,1.90
2023-05-20T00:28:28.910Z,1.90
2023-05-20T00:30:56.611Z,2.47
2023-05-20T00:33:24.272Z,1.87
2023-05-20T00:35:51.952Z,1.50
2023-05-20T00:38:20.179Z,1.67
2023-05-20T00:40:49.596Z,1.50
2023-05-20T00:43:17.414Z,2.07
2023-05-20T00:45:45.063Z,3.30
2023-05-20T00:48:13.606Z,1.70
2023-05-20T00:50:41.521Z,2.03
2023-05-20T00:53:10.031Z,1.67
2023-05-20T00:55:38.336Z,1.40
2023-05-20T00:58:07.471Z,2.77
2023-05-20T01:00:36.389Z,3.00
2023-05-20T01:03:04.191Z,2.80
2023-05-20T01:05:32.167Z,2.13
2023-05-20T01:07:59.866Z,2.60
2023-05-20T01:10:30.373Z,3.17
2023-05-20T01:13:02.728Z,2.77
2023-05-20T01:15:32.955Z,3.47
2023-05-20T01:18:06.302Z,2.50
2023-05-20T01:20:34.758Z,1.90
2023-05-20T01:23:04.427Z,2.03
2023-05-20T01:25:32.460Z,2.37
2023-05-20T01:28:00.285Z,2.90
2023-05-20T01:30:32.058Z,1.53
2023-05-20T01:33:08.623Z,2.10
2023-05-20T01:35:37.465Z,2.13
2023-05-20T01:38:07.787Z,2.17
2023-05-20T01:40:36.123Z,2.20
2023-05-20T01:43:04.608Z,2.40
2023-05-20T01:45:32.678Z,2.60
2023-05-20T01:48:01.718Z,2.73
2023-05-20T01:50:29.488Z,3.63
2023-05-20T01:52:57.288Z,2.10
2023-05-20T01:55:27.201Z,1.80
2023-05-20T01:57:55.716Z,2.13
2023-05-20T02:00:23.850Z,2.27
2023-05-20T02:02:51.961Z,2.03
2023-05-20T02:05:19.791Z,2.83
2023-05-20T02:07:47.697Z,2.10
2023-05-20T02:10:15.388Z,2.67
2023-05-20T02:12:44.982Z,2.73
2023-05-20T02:15:12.939Z,2.13
2023-05-20T02:17:43.758Z,2.97
2023-05-20T02:20:12.468Z,2.40
2023-05-20T02:22:40.206Z,3.70
2023-05-20T02:25:09.390Z,2.37
2023-05-20T02:27:37.634Z,3.07
2023-05-20T02:30:08.376Z,2.67
2023-05-20T02:32:36.410Z,3.70
2023-05-20T02:35:04.252Z,3.47
2023-05-20T02:37:31.993Z,3.73
2023-05-20T02:39:59.792Z,2.43
2023-05-20T02:42:27.448Z,2.20
2023-05-20T02:44:58.526Z,2.77
2023-05-20T02:47:28.252Z,3.43
2023-05-20T02:49:56.516Z,2.70
2023-05-20T02:52:24.243Z,2.67
2023-05-20T02:54:52.809Z,2.73
2023-05-20T02:57:20.700Z,2.93
2023-05-20T02:59:48.587Z,3.50
2023-05-20T03:02:16.385Z,2.50
2023-05-20T03:04:46.841Z,3.17
2023-05-20T03:07:17.693Z,2.73
2023-05-20T03:09:45.348Z,3.20
2023-05-20T03:12:13.040Z,2.53
2023-05-20T03:14:40.698Z,3.30
2023-05-20T03:17:09.350Z,2.77
2023-05-20T03:19:37.091Z,3.90
2023-05-20T03:22:07.386Z,1.97
2023-05-20T03:24:35.714Z,2.47
2023-05-20T03:27:03.641Z,2.83
2023-05-20T03:29:31.324Z,3.27
2023-05-20T03:31:59.095Z,3.53
2023-05-20T03:34:28.121Z,2.80
2023-05-20T03:36:57.408Z,3.37
2023-05-20T03:39:26.562Z,3.10
2023-05-20T03:41:54.340Z,2.63
2023-05-20T03:44:22.023Z,2.23
2023-05-20T03:46:50.163Z,2.73
2023-05-20T03:49:17.913Z,3.00
2023-05-20T03:51:45.698Z,3.03
2023-05-20T03:54:16.677Z,2.90
2023-05-20T03:56:50.515Z,2.80
2023-05-20T03:59:18.168Z,2.17
2023-05-20T04:01:47.101Z,2.80
2023-05-20T04:04:15.240Z,3.07
2023-05-20T04:06:43.291Z,4.23
2023-05-20T04:09:11.120Z,2.77
2023-05-20T04:11:38.820Z,2.77
2023-05-20T04:14:08.060Z,2.47
2023-05-20T04:16:37.346Z,3.77
2023-05-20T04:19:05.591Z,3.87
2023-05-20T04:21:33.492Z,3.70
2023-05-20T04:24:01.289Z,2.70
2023-05-20T04:26:28.993Z,3.00
2023-05-20T04:28:59.103Z,2.67
2023-05-20T04:31:28.778Z,3.77
2023-05-20T04:33:56.790Z,3.03
2023-05-20T04:36:28.760Z,4.43
2023-05-20T04:38:57.192Z,4.77
2023-05-20T04:41:25.101Z,2.53
2023-05-20T04:43:53.856Z,4.83
2023-05-20T04:46:21.585Z,3.50
2023-05-20T04:48:50.765Z,2.67
2023-05-20T04:51:18.583Z,3.87
2023-05-20T04:53:46.489Z,3.93
2023-05-20T04:56:15.487Z,3.37
2023-05-20T04:58:43.864Z,4.27
2023-05-20T05:01:11.726Z,3.93
2023-05-20T05:03:39.435Z,3.93
2023-05-20T05:06:08.717Z,3.20
2023-05-20T05:08:36.402Z,4.60
2023-05-20T05:11:06.708Z,4.83
2023-05-20T05:13:34.677Z,3.17
2023-05-20T05:16:03.659Z,3.97
2023-05-20T05:18:32.927Z,3.70
2023-05-20T05:21:02.300Z,4.27
2023-05-20T05:23:32.038Z,4.77
2023-05-20T05:26:00.553Z,5.13
2023-05-20T05:28:28.730Z,3.73
2023-05-20T05:30:57.076Z,4.73
2023-05-20T05:33:24.839Z,4.10
2023-05-20T05:35:53.223Z,4.27
2023-05-20T05:38:21.025Z,4.97
2023-05-20T05:40:50.108Z,5.27
2023-05-20T05:43:18.384Z,5.00
2023-05-20T05:45:48.750Z,4.40
2023-05-20T05:48:16.538Z,4.73
2023-05-20T05:50:46.890Z,4.57
2023-05-20T05:53:16.577Z,5.20
2023-05-20T05:55:47.605Z,5.37
2023-05-20T05:58:17.741Z,5.60
2023-05-20T06:00:45.988Z,6.17
2023-05-20T06:03:13.762Z,5.03
2023-05-20T06:05:41.454Z,5.07
2023-05-20T06:08:09.256Z,4.07
2023-05-20T06:10:37.648Z,4.47
2023-05-20T06:13:05.902Z,5.17
2023-05-20T06:15:36.619Z,4.53
2023-05-20T06:18:04.760Z,5.30
2023-05-20T06:20:33.815Z,5.80
2023-05-20T06:23:04.032Z,6.00
2023-05-20T06:25:43.909Z,6.20
2023-05-20T06:28:12.632Z,6.10
2023-05-20T06:30:43.412Z,6.50
2023-05-20T06:33:11.604Z,7.07
2023-05-20T06:35:39.437Z,7.13
2023-05-20T06:38:07.140Z,6.57
2023-05-20T06:40:34.935Z,8.00
2023-05-20T06:43:02.601Z,7.93
2023-05-20T06:45:50.868Z,7.93
2023-05-20T06:48:24.248Z,9.07
2023-05-20T06:50:52.051Z,8.90
2023-05-20T06:53:19.991Z,7.53
2023-05-20T06:55:47.897Z,7.90
2023-05-20T06:58:15.688Z,7.77
2023-05-20T07:00:44.480Z,9.03
2023-05-20T07:03:13.948Z,7.23
2023-05-20T07:05:41.672Z,8.60
2023-05-20T07:08:11.338Z,8.33
2023-05-20T07:10:39.309Z,8.57
2023-05-20T07:13:07.362Z,8.53
2023-05-20T07:15:35.265Z,8.43
2023-05-20T07:18:03.145Z,8.50
2023-05-20T07:20:32.291Z,9.90
2023-05-20T07:23:04.465Z,9.60
2023-05-20T07:25:38.798Z,7.70
2023-05-20T07:28:08.133Z,9.47
2023-05-20T07:30:36.773Z,9.03
2023-05-20T07:33:16.395Z,8.30
2023-05-20T07:35:47.321Z,8.37
2023-05-20T07:38:15.104Z,8.53
2023-05-20T07:40:44.795Z,7.93
2023-05-20T07:43:12.600Z,6.87
2023-05-20T07:45:40.650Z,7.43
2023-05-20T07:48:08.946Z,8.63
2023-05-20T07:50:37.895Z,8.93
2023-05-20T07:53:07.061Z,8.27
2023-05-20T07:55:37.077Z,8.17
2023-05-20T07:58:06.212Z,8.77
2023-05-20T08:00:35.828Z,7.50
2023-05-20T08:03:08.152Z,8.33
2023-05-20T08:06:08.938Z,8.33
2023-05-20T08:08:40.550Z,6.70
2023-05-20T08:11:14.925Z,7.33
2023-05-20T08:13:42.978Z,7.90
2023-05-20T08:16:10.950Z,6.63
2023-05-20T08:18:38.800Z,8.03
2023-05-20T08:21:07.916Z,6.60
2023-05-20T08:23:38.718Z,8.03
2023-05-20T08:26:09.327Z,8.63
2023-05-20T08:28:41.147Z,7.07
2023-05-20T08:31:09.767Z,6.20
2023-05-20T08:33:37.832Z,6.10
2023-05-20T08:36:06.553Z,7.13
2023-05-20T08:38:34.462Z,7.47
2023-05-20T08:41:03.935Z,7.10
2023-05-20T08:43:34.408Z,7.03
2023-05-20T08:46:06.567Z,6.03
2023-05-20T08:48:36.909Z,7.53
2023-05-20T08:51:05.196Z,6.90
2023-05-20T08:53:32.988Z,5.80
2023-05-20T08:56:03.581Z,6.53
2023-05-20T08:58:33.615Z,6.20
2023-05-20T09:01:02.425Z,7.50
2023-05-20T09:03:30.520Z,5.83
2023-05-20T09:06:05.663Z,7.30
2023-05-20T09:08:34.225Z,5.87
2023-05-20T09:11:02.951Z,6.97
2023-05-20T09:13:33.977Z,6.90
2023-05-20T09:16:02.702Z,5.53
2023-05-20T09:18:30.986Z,6.03
2023-05-20T09:20:58.908Z,5.50
2023-05-20T09:23:28.007Z,5.70
2023-05-20T09:25:55.718Z,6.17
2023-05-20T09:28:25.665Z,6.60
2023-05-20T09:30:59.830Z,6.77
2023-05-20T09:33:32.153Z,5.97
2023-05-20T09:36:08.511Z,6.93
2023-05-20T09:38:40.077Z,6.33
2023-05-20T09:41:09.320Z,5.00
2023-05-20T09:43:37.597Z,5.97
2023-05-20T09:46:07.122Z,5.23
2023-05-20T09:48:37.181Z,5.07
2023-05-20T09:51:06.150Z,5.20
2023-05-20T09:53:34.013Z,5.13
2023-05-20T09:56:01.780Z,8.23
2023-05-20T09:58:30.615Z,4.90
2023-05-20T10:00:58.515Z,4.57
2023-05-20T10:03:28.062Z,5.33
2023-05-20T10:06:11.918Z,5.67
2023-05-20T10:08:56.987Z,4.57
2023-05-20T10:11:36.813Z,5.50
2023-05-20T10:14:23.291Z,4.20
2023-05-20T10:16:54.959Z,6.00
2023-05-20T10:19:30.289Z,5.47
2023-05-20T10:21:59.632Z,5.50
2023-05-20T10:24:33.102Z,4.97
2023-05-20T10:27:03.331Z,4.87
2023-05-20T10:29:31.958Z,4.97
2023-05-20T10:31:59.678Z,5.40
2023-05-20T10:34:29.018Z,5.53
2023-05-20T10:37:00.216Z,5.83
2023-05-20T10:39:29.444Z,4.67
2023-05-20T10:42:07.432Z,5.13
2023-05-20T10:44:45.422Z,5.20
2023-05-20T10:49:47.736Z,3.03
2023-05-20T10:52:16.096Z,4.53
2023-05-20T10:54:49.400Z,5.23
2023-05-20T10:57:19.538Z,4.17
2023-05-20T10:59:48.445Z,4.13
2023-05-20T11:02:17.431Z,4.60
2023-05-20T11:04:47.105Z,4.87
2023-05-20T11:07:25.266Z,5.30
2023-05-20T11:09:53.022Z,4.20
2023-05-20T11:12:21.650Z,4.87
2023-05-20T11:14:49.806Z,4.83
2023-05-20T11:17:18.289Z,4.57
2023-05-20T11:19:49.253Z,4.47
2023-05-20T11:22:17.214Z,3.57
2023-05-20T11:24:44.905Z,3.67
2023-05-20T11:27:12.673Z,4.80
2023-05-20T11:29:41.370Z,3.43
2023-05-20T11:32:09.414Z,4.77
2023-05-20T11:34:38.537Z,4.73
2023-05-20T11:37:09.897Z,4.17
2023-05-20T11:39:39.045Z,4.70
2023-05-20T11:42:07.023Z,4.97
2023-05-20T11:44:35.265Z,4.70
2023-05-20T11:47:04.110Z,3.77
2023-05-20T11:49:32.121Z,4.33
2023-05-20T11:51:59.786Z,4.60
2023-05-20T11:54:29.066Z,3.87
2023-05-20T11:56:56.964Z,3.58
2023-05-20T11:59:25.442Z,3.67
2023-05-20T12:01:53.107Z,3.47
2023-05-20T12:04:21.996Z,3.40
2023-05-20T12:06:49.717Z,4.68
2023-05-20T12:09:17.599Z,4.07
2023-05-20T12:11:46.587Z,3.65
2023-05-20T12:14:14.464Z,4.00
2023-05-20T12:16:42.246Z,3.90
2023-05-20T12:19:09.930Z,4.23
2023-05-20T12:21:37.868Z,2.50
2023-05-20T12:24:07.088Z,3.33
2023-05-20T12:26:36.103Z,3.17
2023-05-20T12:29:05.122Z,3.33
2023-05-20T12:31:34.969Z,3.85
2023-05-20T12:34:02.858Z,3.33
2023-05-20T12:36:31.543Z,3.50
2023-05-20T12:38:59.261Z,4.10
2023-05-20T12:41:26.929Z,2.92
2023-05-20T12:43:54.997Z,2.63
2023-05-20T12:46:24.278Z,3.33
2023-05-20T12:48:52.342Z,3.38
2023-05-20T12:51:21.205Z,4.03
2023-05-20T12:53:48.999Z,3.50
2023-05-20T12:56:17.005Z,2.97
2023-05-20T12:58:44.632Z,2.03
2023-05-20T13:01:12.344Z,4.00
2023-05-20T13:03:41.686Z,3.30
2023-05-20T13:06:09.649Z,2.90
2023-05-20T13:08:37.398Z,2.50
2023-05-20T13:11:05.294Z,2.60
2023-05-20T13:13:33.084Z,3.35
2023-05-20T13:16:00.749Z,2.60
2023-05-20T13:18:28.405Z,2.58
2023-05-20T13:20:57.439Z,2.40
2023-05-20T13:23:25.211Z,2.25
2023-05-20T13:25:52.894Z,2.78
2023-05-20T13:28:21.571Z,2.80
2023-05-20T13:30:49.269Z,2.72
2023-05-20T13:33:17.123Z,3.05
2023-05-20T13:35:44.759Z,4.00
2023-05-20T13:38:13.892Z,3.30
2023-05-20T13:40:41.600Z,2.95
2023-05-20T13:43:09.708Z,2.88
2023-05-20T13:45:37.332Z,2.97
2023-05-20T13:48:05.609Z,3.60
2023-05-20T13:50:33.449Z,2.53
2023-05-20T13:53:01.225Z,2.03
2023-05-20T13:55:30.324Z,2.42
2023-05-20T13:57:58.080Z,2.20
2023-05-20T14:00:25.984Z,2.30
2023-05-20T14:02:53.746Z,2.45
2023-05-20T14:05:21.553Z,2.65
2023-05-20T14:07:49.214Z,3.65
2023-05-20T14:10:17.159Z,3.15
2023-05-20T14:12:48.102Z,3.42
2023-05-20T14:15:16.193Z,3.25
2023-05-20T14:17:43.844Z,3.42
2023-05-20T14:20:12.232Z,2.65
2023-05-20T14:22:39.885Z,2.78
2023-05-20T14:25:08.772Z,3.05
2023-05-20T14:27:36.634Z,3.83
2023-05-20T14:30:07.482Z,2.97
2023-05-20T14:32:35.150Z,4.07
2023-05-20T14:35:03.300Z,3.03
2023-05-20T14:37:30.977Z,4.15
2023-05-20T14:39:58.746Z,3.35
2023-05-20T14:42:26.711Z,4.18
2023-05-20T14:44:54.474Z,3.63
2023-05-20T14:47:23.719Z,3.92
2023-05-20T14:49:51.588Z,2.83
2023-05-20T14:52:19.879Z,4.38
2023-05-20T14:54:47.712Z,3.33
2023-05-20T14:57:15.891Z,4.93
2023-05-20T14:59:43.963Z,4.43
2023-05-20T15:02:15.436Z,4.20
2023-05-20T15:04:46.764Z,3.70
2023-05-20T15:07:15.064Z,4.05
2023-05-20T15:09:43.661Z,4.15
2023-05-20T15:12:12.335Z,4.65
2023-05-20T15:14:58.567Z,4.03
2023-05-20T15:17:26.693Z,3.58
2023-05-20T15:19:55.692Z,4.10
2023-05-20T15:22:24.172Z,4.20
2023-05-20T15:24:51.854Z,4.13
2023-05-20T15:27:19.926Z,4.05
2023-05-20T15:29:48.676Z,4.70
2023-05-20T15:32:19.860Z,4.75
2023-05-20T15:34:47.832Z,5.07
2023-05-20T15:37:17.047Z,3.90
2023-05-20T15:39:44.747Z,4.55
2023-05-20T15:42:13.837Z,4.22
2023-05-20T15:44:41.563Z,4.30
2023-05-20T15:47:09.217Z,3.28
2023-05-20T15:49:37.009Z,5.63
2023-05-20T15:52:05.468Z,4.05
2023-05-20T15:54:34.501Z,4.25
2023-05-20T15:57:02.531Z,4.93
2023-05-20T15:59:30.619Z,4.18
2023-05-20T16:01:58.476Z,3.97
2023-05-20T16:04:26.292Z,5.03
2023-05-20T16:06:53.959Z,5.07
2023-05-20T16:09:22.184Z,4.50
2023-05-20T16:11:51.370Z,4.80
2023-05-20T16:14:19.153Z,5.00
2023-05-20T16:16:46.982Z,5.93
2023-05-20T16:19:14.840Z,6.28
2023-05-20T16:21:42.657Z,6.37
2023-05-20T16:24:10.622Z,6.63
2023-05-20T16:26:38.538Z,4.97
2023-05-20T16:29:07.525Z,6.80
2023-05-20T16:31:35.715Z,7.40
2023-05-20T16:34:04.733Z,4.47
2023-05-20T16:36:32.627Z,5.73
2023-05-20T16:39:00.384Z,4.93
2023-05-20T16:41:28.637Z,4.57
2023-05-20T16:43:56.259Z,4.57
2023-05-20T16:46:25.480Z,4.53
2023-05-20T16:48:53.098Z,5.37
2023-05-20T16:51:20.932Z,4.40
2023-05-20T16:53:48.575Z,5.17
2023-05-20T16:56:16.394Z,5.77
2023-05-20T16:58:44.011Z,5.30
2023-05-20T17:01:12.003Z,5.30
2023-05-20T17:03:41.143Z,4.83
2023-05-20T17:06:09.504Z,6.27
2023-05-20T17:08:37.997Z,4.93
2023-05-20T17:11:06.149Z,5.43
2023-05-20T17:13:33.784Z,5.10
2023-05-20T17:16:01.704Z,5.57
2023-05-20T17:18:29.456Z,5.00
2023-05-20T17:20:58.547Z,4.87
2023-05-20T17:23:26.322Z,5.97
2023-05-20T17:25:53.953Z,5.30
2023-05-20T17:28:22.209Z,4.47
2023-05-20T17:30:49.868Z,4.60
2023-05-20T17:33:17.771Z,4.53
2023-05-20T17:35:45.517Z,4.37
2023-05-20T17:38:14.721Z,5.73
2023-05-20T17:40:42.395Z,5.60
2023-05-20T17:43:10.427Z,4.70
2023-05-20T17:45:38.033Z,4.63
2023-05-20T17:48:08.774Z,4.07
2023-05-20T17:50:38.682Z,4.30
2023-05-20T17:53:06.901Z,4.97
2023-05-20T17:55:36.959Z,4.47
2023-05-20T17:58:04.958Z,5.53
2023-05-20T18:00:34.484Z,4.83
2023-05-20T18:03:02.726Z,4.37
2023-05-20T18:05:30.644Z,4.73
2023-05-20T18:07:58.361Z,4.90
2023-05-20T18:10:26.326Z,5.40
2023-05-20T18:12:55.342Z,3.97
2023-05-20T18:15:23.515Z,4.20
2023-05-20T18:17:51.213Z,5.03
2023-05-20T18:20:19.292Z,5.07
2023-05-20T18:22:46.978Z,5.90
2023-05-20T18:25:15.092Z,6.70
2023-05-20T18:27:43.652Z,7.37
2023-05-20T18:30:12.975Z,6.37
2023-05-20T18:32:40.655Z,6.10
2023-05-20T18:35:09.084Z,6.57
2023-05-20T18:37:36.779Z,4.73
2023-05-20T18:40:06.450Z,4.90
2023-05-20T18:42:34.235Z,6.07
2023-05-20T18:45:02.227Z,5.20
2023-05-20T18:47:31.397Z,6.83
2023-05-20T18:49:59.243Z,6.37
2023-05-20T18:52:27.051Z,6.23
2023-05-20T18:54:54.857Z,6.27
2023-05-20T18:57:22.650Z,6.73
2023-05-20T18:59:50.655Z,5.37
2023-05-20T19:02:18.612Z,4.87
2023-05-20T19:04:47.758Z,6.77
2023-05-20T19:07:15.566Z,5.13
2023-05-20T19:09:43.201Z,6.30
2023-05-20T19:12:11.312Z,4.23
2023-05-20T19:14:38.945Z,4.63
2023-05-20T19:17:06.999Z,4.30
2023-05-20T19:19:34.767Z,5.30
2023-05-20T19:22:04.156Z,5.63
2023-05-20T19:24:32.266Z,7.30
2023-05-20T19:27:00.387Z,5.63
2023-05-20T19:29:28.131Z,6.07
2023-05-20T19:31:56.585Z,7.03
2023-05-20T19:34:24.471Z,5.60
2023-05-20T19:36:52.271Z,5.37
2023-05-20T19:39:22.154Z,6.30
2023-05-20T19:41:50.160Z,5.83
2023-05-20T19:44:18.983Z,5.63
2023-05-20T19:46:48.053Z,6.97
2023-05-20T19:49:15.845Z,7.20
2023-05-20T19:51:44.009Z,8.97
2023-05-20T19:54:12.016Z,10.50
2023-05-20T19:56:41.048Z,9.03
2023-05-20T19:59:08.673Z,9.87
2023-05-20T20:01:36.466Z,8.10
2023-05-20T20:04:04.288Z,7.10
2023-05-20T20:06:32.400Z,7.67
2023-05-20T20:09:00.349Z,6.30
2023-05-20T20:11:28.080Z,6.17
2023-05-20T20:13:58.410Z,7.43
2023-05-20T20:16:26.853Z,8.03
2023-05-20T20:18:55.266Z,6.97
2023-05-20T20:21:25.667Z,6.37
2023-05-20T20:23:53.954Z,6.63
2023-05-20T20:26:25.818Z,6.10
2023-05-20T20:28:53.729Z,5.17
2023-05-20T20:31:22.766Z,6.90
2023-05-20T20:33:51.508Z,6.90
2023-05-20T20:36:19.156Z,5.63
2023-05-20T20:38:47.730Z,6.40
2023-05-20T20:41:16.674Z,6.00
2023-05-20T20:43:45.074Z,7.30
2023-05-20T20:46:14.683Z,7.30
2023-05-20T20:48:45.991Z,6.63
2023-05-20T20:51:14.280Z,7.57
2023-05-20T20:53:42.857Z,7.20
2023-05-20T20:56:11.348Z,7.30
2023-05-20T20:58:39.843Z,6.73
2023-05-20T21:01:10.106Z,6.77
2023-05-20T21:03:40.369Z,9.27
2023-05-20T21:06:09.992Z,7.17
2023-05-20T21:08:37.632Z,7.50
2023-05-20T21:11:05.855Z,7.70
2023-05-20T21:13:33.919Z,7.57
2023-05-20T21:16:01.605Z,7.37
2023-05-20T21:18:29.281Z,8.13
2023-05-20T21:20:57.446Z,8.70
2023-05-20T21:23:26.415Z,6.63
2023-05-20T21:25:54.094Z,9.33
2023-05-20T21:28:22.415Z,7.03
2023-05-20T21:30:50.518Z,8.00
2023-05-20T21:33:18.232Z,7.70
2023-05-20T21:35:49.561Z,7.73
2023-05-20T21:38:17.409Z,9.70
2023-05-20T21:40:48.622Z,9.17
2023-05-20T21:43:16.448Z,7.13
2023-05-20T21:45:45.805Z,7.13
2023-05-20T21:48:13.800Z,6.97
2023-05-20T21:50:43.227Z,7.43
2023-05-20T21:53:11.101Z,8.27
2023-05-20T21:55:39.292Z,7.70
2023-05-20T21:58:08.296Z,7.27
2023-05-20T22:00:36.543Z,7.73
2023-05-20T22:03:04.475Z,6.37
2023-05-20T22:05:34.719Z,6.50
2023-05-20T22:08:03.395Z,7.17
2023-05-20T22:10:34.355Z,7.13
2023-05-20T22:13:02.959Z,6.60
2023-05-20T22:15:32.274Z,6.83
2023-05-20T22:18:00.114Z,6.47
2023-05-20T22:20:28.641Z,7.97
2023-05-20T22:22:56.341Z,7.60
2023-05-20T22:25:23.997Z,8.33
2023-05-20T22:27:51.934Z,8.30
2023-05-20T22:30:19.580Z,7.30
2023-05-20T22:32:48.819Z,7.27
2023-05-20T22:35:16.727Z,9.33
2023-05-20T22:37:44.704Z,12.30
2023-05-20T22:40:12.783Z,8.17
2023-05-20T22:42:40.776Z,7.47
2023-05-20T22:45:09.757Z,6.40
2023-05-20T22:47:37.419Z,7.10
2023-05-20T22:50:07.959Z,7.40
2023-05-20T22:52:36.710Z,7.20
2023-05-20T22:55:04.688Z,8.80
2023-05-20T22:57:32.732Z,8.33
2023-05-20T23:00:00.779Z,8.00
2023-05-20T23:02:30.387Z,7.87
2023-05-20T23:04:58.362Z,7.70
2023-05-20T23:07:27.849Z,8.40
2023-05-20T23:09:55.730Z,7.73
2023-05-20T23:12:23.525Z,7.47
2023-05-20T23:14:51.714Z,7.77
2023-05-20T23:17:19.389Z,6.67
2023-05-20T23:19:47.375Z,8.23
2023-05-20T23:22:15.251Z,8.53
2023-05-20T23:24:44.386Z,7.40
2023-05-20T23:27:12.011Z,9.90
2023-05-20T23:29:39.702Z,10.17
2023-05-20T23:32:07.907Z,11.67
2023-05-20T23:34:35.997Z,7.90
2023-05-20T23:37:03.667Z,10.07
2023-05-20T23:39:31.544Z,8.57
2023-05-20T23:42:00.994Z,8.37
2023-05-20T23:44:28.650Z,9.23
2023-05-20T23:46:56.279Z,8.60
2023-05-20T23:49:27.237Z,7.70
2023-05-20T23:51:55.346Z,7.57
2023-05-20T23:54:23.440Z,7.93
2023-05-20T23:56:51.137Z,7.60
2023-05-20T23:59:20.229Z,8.50
